createdAt,value
2023-03-12T00:00:04.112Z,86.55
2023-03-12T00:01:04.127Z,86.35
2023-03-12T00:02:04.105Z,86.24
2023-03-12T00:03:04.103Z,86.55
2023-03-12T00:04:04.200Z,86.24
2023-03-12T00:05:04.152Z,85.82
2023-03-12T00:06:10.636Z,85.68
2023-03-12T00:07:05.040Z,85.41
2023-03-12T00:08:04.094Z,85.93
2023-03-12T00:09:04.078Z,86.10
2023-03-12T00:10:04.019Z,85.82
2023-03-12T00:11:03.989Z,86.03
2023-03-12T00:12:03.989Z,85.93
2023-03-12T00:13:03.966Z,85.47
2023-03-12T00:14:03.957Z,85.36
2023-03-12T00:15:03.954Z,85.30
2023-03-12T00:16:03.978Z,85.20
2023-03-12T00:17:03.972Z,85.41
2023-03-12T00:18:03.941Z,85.72
2023-03-12T00:19:03.950Z,86.13
2023-03-12T00:20:03.889Z,86.03
2023-03-12T00:21:03.898Z,85.82
2023-03-12T00:22:03.868Z,86.24
2023-03-12T00:23:03.861Z,85.72
2023-03-12T00:24:03.879Z,86.24
2023-03-12T00:25:03.841Z,86.35
2023-03-12T00:26:03.836Z,86.24
2023-03-12T00:27:03.834Z,86.55
2023-03-12T00:28:03.802Z,86.45
2023-03-12T00:29:03.793Z,86.35
2023-03-12T00:30:03.783Z,86.35
2023-03-12T00:31:03.813Z,86.45
2023-03-12T00:32:03.792Z,86.55
2023-03-12T00:33:03.748Z,86.45
2023-03-12T00:34:03.761Z,86.24
2023-03-12T00:35:03.726Z,86.45
2023-03-12T00:36:03.789Z,86.35
2023-03-12T00:37:03.711Z,86.20
2023-03-12T00:38:03.700Z,86.30
2023-03-12T00:39:03.688Z,85.72
2023-03-12T00:40:03.664Z,85.58
2023-03-12T00:41:03.686Z,86.13
2023-03-12T00:42:03.642Z,86.24
2023-03-12T00:43:03.665Z,85.41
2023-03-12T00:44:03.629Z,85.47
2023-03-12T00:45:03.613Z,85.05
2023-03-12T00:46:03.617Z,84.74
2023-03-12T00:47:03.591Z,84.67
2023-03-12T00:48:03.577Z,84.84
2023-03-12T00:49:03.587Z,84.74
2023-03-12T00:50:03.580Z,84.57
2023-03-12T00:51:03.546Z,84.26
2023-03-12T00:52:03.532Z,84.05
2023-03-12T00:53:03.541Z,84.53
2023-03-12T00:54:03.516Z,83.39
2023-03-12T00:55:03.516Z,82.28
2023-03-12T00:56:03.492Z,81.82
2023-03-12T00:57:03.488Z,81.34
2023-03-12T00:58:03.467Z,81.09
2023-03-12T00:59:03.470Z,81.41
2023-03-12T01:00:03.445Z,81.45
2023-03-12T01:01:03.586Z,81.41
2023-03-12T01:02:03.429Z,81.51
2023-03-12T01:03:03.416Z,81.30
2023-03-12T01:04:03.464Z,81.09
2023-03-12T01:05:03.398Z,81.09
2023-03-12T01:06:03.403Z,80.88
2023-03-12T01:07:03.389Z,80.33
2023-03-12T01:08:03.361Z,80.68
2023-03-12T01:09:03.369Z,80.26
2023-03-12T01:10:03.341Z,80.05
2023-03-12T01:11:03.343Z,80.16
2023-03-12T01:12:03.320Z,79.84
2023-03-12T01:13:03.329Z,79.43
2023-03-12T01:14:03.327Z,79.43
2023-03-12T01:15:03.295Z,79.43
2023-03-12T01:16:03.324Z,79.11
2023-03-12T01:17:03.267Z,79.43
2023-03-12T01:18:03.255Z,79.32
2023-03-12T01:19:03.242Z,79.11
2023-03-12T01:20:03.276Z,78.69
2023-03-12T01:21:03.225Z,79.01
2023-03-12T01:22:03.235Z,78.49
2023-03-12T01:23:03.203Z,78.80
2023-03-12T01:24:03.195Z,78.07
2023-03-12T01:25:03.185Z,78.07
2023-03-12T01:26:03.205Z,78.07
2023-03-12T01:27:03.156Z,78.38
2023-03-12T01:28:03.158Z,78.28
2023-03-12T01:29:03.135Z,78.07
2023-03-12T01:30:03.132Z,77.97
2023-03-12T01:31:03.138Z,78.03
2023-03-12T01:32:03.119Z,77.97
2023-03-12T01:33:03.091Z,78.45
2023-03-12T01:34:03.090Z,78.28
2023-03-12T01:35:03.069Z,78.07
2023-03-12T01:36:03.191Z,78.14
2023-03-12T01:37:03.096Z,78.07
2023-03-12T01:38:03.059Z,77.62
2023-03-12T01:39:03.022Z,77.93
2023-03-12T01:40:03.018Z,78.03
2023-03-12T01:41:03.002Z,77.34
2023-03-12T01:42:03.012Z,77.62
2023-03-12T01:43:02.986Z,77.45
2023-03-12T01:44:02.970Z,77.41
2023-03-12T01:45:02.985Z,77.41
2023-03-12T01:46:03.070Z,77.62
2023-03-12T01:47:02.947Z,77.41
2023-03-12T01:48:02.949Z,77.93
2023-03-12T01:49:02.912Z,78.17
2023-03-12T01:50:02.912Z,78.07
2023-03-12T01:51:02.892Z,78.28
2023-03-12T01:52:02.885Z,78.03
2023-03-12T01:53:02.878Z,78.24
2023-03-12T01:54:02.902Z,77.62
2023-03-12T01:55:02.855Z,77.83
2023-03-12T01:56:02.835Z,77.72
2023-03-12T01:57:02.834Z,77.72
2023-03-12T01:58:02.832Z,77.51
2023-03-12T01:59:02.798Z,77.10
2023-03-12T02:00:02.817Z,77.10
2023-03-12T02:01:02.797Z,77.10
2023-03-12T02:02:02.772Z,76.99
2023-03-12T02:03:02.755Z,76.99
2023-03-12T02:04:02.803Z,77.10
2023-03-12T02:05:02.737Z,76.99
2023-03-12T02:06:02.733Z,77.41
2023-03-12T02:07:02.710Z,77.20
2023-03-12T02:08:02.720Z,77.31
2023-03-12T02:09:02.709Z,77.20
2023-03-12T02:10:02.710Z,77.31
2023-03-12T02:11:02.667Z,77.10
2023-03-12T02:12:02.669Z,77.20
2023-03-12T02:13:02.647Z,77.72
2023-03-12T02:14:02.652Z,77.20
2023-03-12T02:15:02.642Z,77.34
2023-03-12T02:16:02.620Z,77.20
2023-03-12T02:17:02.603Z,77.20
2023-03-12T02:18:02.615Z,77.31
2023-03-12T02:19:02.580Z,77.34
2023-03-12T02:20:02.591Z,77.10
2023-03-12T02:21:02.571Z,77.20
2023-03-12T02:22:02.554Z,77.20
2023-03-12T02:23:02.537Z,77.10
2023-03-12T02:24:02.538Z,77.20
2023-03-12T02:25:02.539Z,76.99
2023-03-12T02:26:02.537Z,77.51
2023-03-12T02:27:02.503Z,77.31
2023-03-12T02:28:02.493Z,77.62
2023-03-12T02:29:02.498Z,77.62
2023-03-12T02:30:02.478Z,77.41
2023-03-12T02:31:02.483Z,77.93
2023-03-12T02:32:02.549Z,77.72
2023-03-12T02:33:02.433Z,77.62
2023-03-12T02:34:02.429Z,77.72
2023-03-12T02:35:02.413Z,77.83
2023-03-12T02:36:02.496Z,78.24
2023-03-12T02:37:02.394Z,77.62
2023-03-12T02:38:02.377Z,77.83
2023-03-12T02:39:02.379Z,77.72
2023-03-12T02:40:02.364Z,78.14
2023-03-12T02:41:02.345Z,77.51
2023-03-12T02:42:02.375Z,77.83
2023-03-12T02:43:02.326Z,77.62
2023-03-12T02:44:02.329Z,77.72
2023-03-12T02:45:02.322Z,77.62
2023-03-12T02:46:02.345Z,77.51
2023-03-12T02:47:02.292Z,77.31
2023-03-12T02:48:02.292Z,77.31
2023-03-12T02:49:02.259Z,77.41
2023-03-12T02:50:02.254Z,77.10
2023-03-12T02:51:02.237Z,77.10
2023-03-12T02:52:02.240Z,77.41
2023-03-12T02:53:02.220Z,77.27
2023-03-12T02:54:02.212Z,77.17
2023-03-12T02:55:02.200Z,77.17
2023-03-12T02:56:02.188Z,76.96
2023-03-12T02:57:02.185Z,77.31
2023-03-12T02:58:02.200Z,76.96
2023-03-12T02:59:04.330Z,77.31
2023-03-12T03:00:02.143Z,77.10
2023-03-12T03:01:02.199Z,77.31
2023-03-12T03:02:09.243Z,77.27
2023-03-12T03:03:02.114Z,76.99
2023-03-12T03:04:02.136Z,77.41
2023-03-12T03:05:02.108Z,77.20
2023-03-12T03:06:02.083Z,77.31
2023-03-12T03:07:02.063Z,77.20
2023-03-12T03:08:02.069Z,77.41
2023-03-12T03:09:02.042Z,77.31
2023-03-12T03:10:02.031Z,77.31
2023-03-12T03:11:02.031Z,77.41
2023-03-12T03:12:02.013Z,77.48
2023-03-12T03:13:02.016Z,77.17
2023-03-12T03:14:02.013Z,77.20
2023-03-12T03:15:01.993Z,77.06
2023-03-12T03:16:02.096Z,76.96
2023-03-12T03:17:01.950Z,77.17
2023-03-12T03:18:01.974Z,76.65
2023-03-12T03:19:01.932Z,76.57
2023-03-12T03:20:01.943Z,77.58
2023-03-12T03:21:01.913Z,77.48
2023-03-12T03:22:01.907Z,77.58
2023-03-12T03:23:01.895Z,77.37
2023-03-12T03:24:01.917Z,77.51
2023-03-12T03:25:01.872Z,76.65
2023-03-12T03:26:01.868Z,76.43
2023-03-12T03:27:01.847Z,77.48
2023-03-12T03:28:01.869Z,77.27
2023-03-12T03:29:01.837Z,77.48
2023-03-12T03:30:01.859Z,76.75
2023-03-12T03:31:01.935Z,76.65
2023-03-12T03:32:01.803Z,76.54
2023-03-12T03:33:01.813Z,76.65
2023-03-12T03:34:01.780Z,76.65
2023-03-12T03:35:01.818Z,76.33
2023-03-12T03:36:01.885Z,76.54
2023-03-12T03:37:01.733Z,76.86
2023-03-12T03:38:01.736Z,76.96
2023-03-12T03:39:01.720Z,77.48
2023-03-12T03:40:01.728Z,76.54
2023-03-12T03:41:01.841Z,76.20
2023-03-12T03:42:01.711Z,76.20
2023-03-12T03:43:01.690Z,76.30
2023-03-12T03:44:01.667Z,76.20
2023-03-12T03:45:01.647Z,75.71
2023-03-12T03:46:01.692Z,76.02
2023-03-12T03:47:01.673Z,75.60
2023-03-12T03:48:01.618Z,76.09
2023-03-12T03:49:01.605Z,76.02
2023-03-12T03:50:01.639Z,76.20
2023-03-12T03:51:01.581Z,76.12
2023-03-12T03:52:01.594Z,75.81
2023-03-12T03:53:01.562Z,76.23
2023-03-12T03:54:01.556Z,76.12
2023-03-12T03:55:01.557Z,75.60
2023-03-12T03:56:01.532Z,75.78
2023-03-12T03:57:01.518Z,75.57
2023-03-12T03:58:01.518Z,75.67
2023-03-12T03:59:01.493Z,75.67
2023-03-12T04:00:03.638Z,75.46
2023-03-12T04:01:01.491Z,75.98
2023-03-12T04:02:01.501Z,75.46
2023-03-12T04:03:01.473Z,75.36
2023-03-12T04:04:01.447Z,75.78
2023-03-12T04:05:01.453Z,76.02
2023-03-12T04:06:01.543Z,75.50
2023-03-12T04:07:01.453Z,75.15
2023-03-12T04:08:01.399Z,75.88
2023-03-12T04:09:01.391Z,76.20
2023-03-12T04:10:01.410Z,75.67
2023-03-12T04:11:01.367Z,74.95
2023-03-12T04:12:01.366Z,75.46
2023-03-12T04:13:01.364Z,74.95
2023-03-12T04:14:01.343Z,75.88
2023-03-12T04:15:01.318Z,75.46
2023-03-12T04:16:01.389Z,75.36
2023-03-12T04:17:01.300Z,75.57
2023-03-12T04:18:01.425Z,75.78
2023-03-12T04:19:01.285Z,75.67
2023-03-12T04:20:01.328Z,76.40
2023-03-12T04:21:01.310Z,76.09
2023-03-12T04:22:01.245Z,75.15
2023-03-12T04:23:01.395Z,75.50
2023-03-12T04:24:01.283Z,75.98
2023-03-12T04:25:01.232Z,76.02
2023-03-12T04:26:01.238Z,76.23
2023-03-12T04:27:01.194Z,76.65
2023-03-12T04:28:01.201Z,76.86
2023-03-12T04:29:01.172Z,77.23
2023-03-12T04:30:01.185Z,77.37
2023-03-12T04:31:01.216Z,77.03
2023-03-12T04:32:01.195Z,77.13
2023-03-12T04:33:01.122Z,77.17
2023-03-12T04:34:01.149Z,77.17
2023-03-12T04:35:01.111Z,77.27
2023-03-12T04:36:01.205Z,76.92
2023-03-12T04:37:01.091Z,77.06
2023-03-12T04:38:01.094Z,77.58
2023-03-12T04:39:01.071Z,77.48
2023-03-12T04:40:01.060Z,77.27
2023-03-12T04:41:01.063Z,77.37
2023-03-12T04:42:01.030Z,77.48
2023-03-12T04:43:01.019Z,77.27
2023-03-12T04:44:01.011Z,77.58
2023-03-12T04:45:00.996Z,77.62
2023-03-12T04:46:00.996Z,78.14
2023-03-12T04:47:01.037Z,78.14
2023-03-12T04:48:00.979Z,78.56
2023-03-12T04:49:00.966Z,78.77
2023-03-12T04:50:00.969Z,78.34
2023-03-12T04:51:00.939Z,78.66
2023-03-12T04:52:00.949Z,78.77
2023-03-12T04:53:00.930Z,78.66
2023-03-12T04:54:00.909Z,78.56
2023-03-12T04:55:00.895Z,78.66
2023-03-12T04:56:00.912Z,79.39
2023-03-12T04:57:00.883Z,78.66
2023-03-12T04:58:00.859Z,78.77
2023-03-12T04:59:00.848Z,78.97
2023-03-12T05:00:00.875Z,78.66
2023-03-12T05:01:00.828Z,78.66
2023-03-12T05:02:00.819Z,78.45
2023-03-12T05:03:00.987Z,78.66
2023-03-12T05:04:00.831Z,78.56
2023-03-12T05:05:00.805Z,78.56
2023-03-12T05:06:00.809Z,79.28
2023-03-12T05:07:00.761Z,78.97
2023-03-12T05:08:00.759Z,79.08
2023-03-12T05:09:00.747Z,79.39
2023-03-12T05:10:00.745Z,79.49
2023-03-12T05:11:00.727Z,79.18
2023-03-12T05:12:00.718Z,79.39
2023-03-12T05:13:00.716Z,79.32
2023-03-12T05:14:00.703Z,79.28
2023-03-12T05:15:00.682Z,79.63
2023-03-12T05:16:00.739Z,79.28
2023-03-12T05:17:00.657Z,79.53
2023-03-12T05:18:00.642Z,79.01
2023-03-12T05:19:00.626Z,79.49
2023-03-12T05:20:00.644Z,79.39
2023-03-12T05:21:00.645Z,79.70
2023-03-12T05:22:00.619Z,79.39
2023-03-12T05:23:00.600Z,79.49
2023-03-12T05:24:00.591Z,79.28
2023-03-12T05:25:00.592Z,78.77
2023-03-12T05:26:00.576Z,77.89
2023-03-12T05:27:00.547Z,78.00
2023-03-12T05:28:00.553Z,77.62
2023-03-12T05:29:00.536Z,77.58
2023-03-12T05:30:00.532Z,77.27
2023-03-12T05:31:00.527Z,77.06
2023-03-12T05:32:00.590Z,77.17
2023-03-12T05:33:00.489Z,77.17
2023-03-12T05:34:00.483Z,77.17
2023-03-12T05:35:00.468Z,76.86
2023-03-12T05:36:00.527Z,76.33
2023-03-12T05:37:00.443Z,76.23
2023-03-12T05:38:00.449Z,75.92
2023-03-12T05:39:00.429Z,76.20
2023-03-12T05:40:00.409Z,76.09
2023-03-12T05:41:00.412Z,76.09
2023-03-12T05:42:00.390Z,76.23
2023-03-12T05:43:00.399Z,75.78
2023-03-12T05:44:00.415Z,76.09
2023-03-12T05:45:00.355Z,75.67
2023-03-12T05:46:00.401Z,76.09
2023-03-12T05:47:00.325Z,75.78
2023-03-12T05:48:00.319Z,75.57
2023-03-12T05:49:00.305Z,75.46
2023-03-12T05:50:00.292Z,75.67
2023-03-12T05:51:00.315Z,75.98
2023-03-12T05:52:00.299Z,76.09
2023-03-12T05:53:00.261Z,75.88
2023-03-12T05:54:00.271Z,75.78
2023-03-12T05:55:00.247Z,75.78
2023-03-12T05:56:00.230Z,75.67
2023-03-12T05:57:00.237Z,76.09
2023-03-12T05:58:00.216Z,76.30
2023-03-12T05:59:00.199Z,75.67
2023-03-12T06:00:00.187Z,75.88
2023-03-12T06:01:00.169Z,75.98
2023-03-12T06:02:00.281Z,76.40
2023-03-12T06:03:00.199Z,75.98
2023-03-12T06:04:00.141Z,76.20
2023-03-12T06:05:00.151Z,76.20
2023-03-12T06:06:00.125Z,76.40
2023-03-12T06:07:00.113Z,75.88
2023-03-12T06:08:00.137Z,76.30
2023-03-12T06:09:00.121Z,75.98
2023-03-12T06:10:00.116Z,76.40
2023-03-12T06:11:00.093Z,76.51
2023-03-12T06:12:00.065Z,76.40
2023-03-12T06:13:00.056Z,76.20
2023-03-12T06:14:00.044Z,76.20
2023-03-12T06:15:00.014Z,76.40
2023-03-12T06:16:00.003Z,76.30
2023-03-12T06:17:00.069Z,76.20
2023-03-12T06:17:59.988Z,76.40
2023-03-12T06:19:00.009Z,76.40
2023-03-12T06:19:59.961Z,76.47
2023-03-12T06:20:59.954Z,76.72
2023-03-12T06:21:59.935Z,76.06
2023-03-12T06:22:59.926Z,75.78
2023-03-12T06:23:59.920Z,76.20
2023-03-12T06:24:59.911Z,76.30
2023-03-12T06:25:59.910Z,76.16
2023-03-12T06:26:59.882Z,76.30
2023-03-12T06:27:59.874Z,76.20
2023-03-12T06:28:59.867Z,76.16
2023-03-12T06:29:59.852Z,76.16
2023-03-12T06:30:59.841Z,75.95
2023-03-12T06:31:59.868Z,76.26
2023-03-12T06:32:59.823Z,76.57
2023-03-12T06:34:00.470Z,76.37
2023-03-12T06:34:59.813Z,76.16
2023-03-12T06:35:59.912Z,75.95
2023-03-12T06:36:59.806Z,75.95
2023-03-12T06:37:59.760Z,75.74
2023-03-12T06:38:59.759Z,75.95
2023-03-12T06:39:59.742Z,76.37
2023-03-12T06:40:59.731Z,76.47
2023-03-12T06:41:59.751Z,76.47
2023-03-12T06:42:59.720Z,76.16
2023-03-12T06:43:59.692Z,76.16
2023-03-12T06:44:59.691Z,76.16
2023-03-12T06:45:59.725Z,76.57
2023-03-12T06:46:59.666Z,77.30
2023-03-12T06:47:59.673Z,76.57
2023-03-12T06:48:59.636Z,76.57
2023-03-12T06:49:59.627Z,77.30
2023-03-12T06:50:59.621Z,77.40
2023-03-12T06:51:59.612Z,77.20
2023-03-12T06:52:59.609Z,76.89
2023-03-12T06:53:59.587Z,76.99
2023-03-12T06:54:59.578Z,76.99
2023-03-12T06:55:59.586Z,77.30
2023-03-12T06:56:59.576Z,77.09
2023-03-12T06:57:59.560Z,77.09
2023-03-12T06:58:59.539Z,77.09
2023-03-12T06:59:59.525Z,77.09
2023-03-12T07:00:59.521Z,76.78
2023-03-12T07:01:59.555Z,77.06
2023-03-12T07:02:59.499Z,76.89
2023-03-12T07:03:59.507Z,76.95
2023-03-12T07:04:59.530Z,76.89
2023-03-12T07:05:59.462Z,77.20
2023-03-12T07:06:59.461Z,76.95
2023-03-12T07:07:59.468Z,76.95
2023-03-12T07:08:59.429Z,76.95
2023-03-12T07:09:59.413Z,77.27
2023-03-12T07:11:01.293Z,77.09
2023-03-12T07:11:59.428Z,76.95
2023-03-12T07:12:59.409Z,77.06
2023-03-12T07:13:59.415Z,77.09
2023-03-12T07:14:59.368Z,76.95
2023-03-12T07:15:59.408Z,77.37
2023-03-12T07:16:59.342Z,77.58
2023-03-12T07:17:59.366Z,77.37
2023-03-12T07:18:59.329Z,77.06
2023-03-12T07:19:59.345Z,76.95
2023-03-12T07:20:59.299Z,77.06
2023-03-12T07:21:59.293Z,77.27
2023-03-12T07:22:59.304Z,76.85
2023-03-12T07:23:59.274Z,77.16
2023-03-12T07:24:59.259Z,77.06
2023-03-12T07:25:59.241Z,76.85
2023-03-12T07:26:59.235Z,76.95
2023-03-12T07:27:59.236Z,77.09
2023-03-12T07:28:59.226Z,77.48
2023-03-12T07:29:59.224Z,77.37
2023-03-12T07:30:59.195Z,78.00
2023-03-12T07:31:59.176Z,78.20
2023-03-12T07:32:59.313Z,77.89
2023-03-12T07:33:59.331Z,78.20
2023-03-12T07:34:59.155Z,78.41
2023-03-12T07:35:59.235Z,78.31
2023-03-12T07:36:59.127Z,78.58
2023-03-12T07:37:59.135Z,78.41
2023-03-12T07:38:59.104Z,78.58
2023-03-12T07:39:59.124Z,78.38
2023-03-12T07:40:59.128Z,78.93
2023-03-12T07:41:59.140Z,79.10
2023-03-12T07:42:59.079Z,79.10
2023-03-12T07:43:59.175Z,79.21
2023-03-12T07:44:59.125Z,79.31
2023-03-12T07:45:59.069Z,79.10
2023-03-12T07:47:02.946Z,79.41
2023-03-12T07:48:00.064Z,79.41
2023-03-12T07:48:59.005Z,79.41
2023-03-12T07:49:59.052Z,79.52
2023-03-12T07:50:59.010Z,79.10
2023-03-12T07:51:58.999Z,79.52
2023-03-12T07:52:58.944Z,79.72
2023-03-12T07:53:58.935Z,79.76
2023-03-12T07:54:59.057Z,80.04
2023-03-12T07:55:59.263Z,80.35
2023-03-12T07:56:59.067Z,80.18
2023-03-12T07:57:58.981Z,80.56
2023-03-12T07:58:59.121Z,80.98
2023-03-12T07:59:58.896Z,81.39
2023-03-12T08:00:58.905Z,80.87
2023-03-12T08:01:58.964Z,82.15
2023-03-12T08:02:59.112Z,82.05
2023-03-12T08:03:58.861Z,82.74
2023-03-12T08:04:58.852Z,82.84
2023-03-12T08:05:58.873Z,82.89
2023-03-12T08:06:58.811Z,83.72
2023-03-12T08:07:58.796Z,83.68
2023-03-12T08:08:58.774Z,84.51
2023-03-12T08:09:58.759Z,83.78
2023-03-12T08:10:58.755Z,84.75
2023-03-12T08:11:58.743Z,84.72
2023-03-12T08:12:58.778Z,85.17
2023-03-12T08:13:58.714Z,85.38
2023-03-12T08:14:58.721Z,85.80
2023-03-12T08:15:58.719Z,86.21
2023-03-12T08:16:58.694Z,86.42
2023-03-12T08:17:58.700Z,86.32
2023-03-12T08:18:58.668Z,86.83
2023-03-12T08:19:58.672Z,87.15
2023-03-12T08:20:58.665Z,87.77
2023-03-12T08:21:58.641Z,87.66
2023-03-12T08:22:58.634Z,87.88
2023-03-12T08:23:58.603Z,88.75
2023-03-12T08:24:58.616Z,88.40
2023-03-12T08:25:58.584Z,89.23
2023-03-12T08:26:58.596Z,88.92
2023-03-12T08:27:58.577Z,90.00
2023-03-12T08:28:58.560Z,89.85
2023-03-12T08:29:58.549Z,89.85
2023-03-12T08:30:58.531Z,90.00
2023-03-12T08:32:04.908Z,89.85
2023-03-12T08:32:59.552Z,90.58
2023-03-12T08:33:58.522Z,90.58
2023-03-12T08:34:58.494Z,90.31
2023-03-12T08:35:58.517Z,90.31
2023-03-12T08:36:58.465Z,90.37
2023-03-12T08:37:58.470Z,90.16
2023-03-12T08:38:58.459Z,90.31
2023-03-12T08:39:58.424Z,90.72
2023-03-12T08:40:58.425Z,91.14
2023-03-12T08:41:58.421Z,91.00
2023-03-12T08:42:58.409Z,90.79
2023-03-12T08:43:58.408Z,90.69
2023-03-12T08:44:58.376Z,91.00
2023-03-12T08:45:58.410Z,90.89
2023-03-12T08:46:58.393Z,91.00
2023-03-12T08:47:58.364Z,91.00
2023-03-12T08:48:58.341Z,91.04
2023-03-12T08:49:58.354Z,90.83
2023-03-12T08:50:58.322Z,90.26
2023-03-12T08:51:58.303Z,90.37
2023-03-12T08:52:58.313Z,90.47
2023-03-12T08:53:58.289Z,90.69
2023-03-12T08:54:58.274Z,90.58
2023-03-12T08:55:58.268Z,90.89
2023-03-12T08:56:58.260Z,91.00
2023-03-12T08:57:58.252Z,90.89
2023-03-12T08:58:58.239Z,91.20
2023-03-12T08:59:58.219Z,91.10
2023-03-12T09:00:58.259Z,90.89
2023-03-12T09:01:58.201Z,90.79
2023-03-12T09:03:05.399Z,90.89
2023-03-12T09:03:58.247Z,90.85
2023-03-12T09:04:58.162Z,90.26
2023-03-12T09:05:58.171Z,90.44
2023-03-12T09:06:58.139Z,90.33
2023-03-12T09:07:58.123Z,90.79
2023-03-12T09:08:58.133Z,90.33
2023-03-12T09:09:58.110Z,90.23
2023-03-12T09:10:58.115Z,90.44
2023-03-12T09:11:58.102Z,90.47
2023-03-12T09:12:58.099Z,90.75
2023-03-12T09:14:31.178Z,90.95
2023-03-12T09:15:03.510Z,91.20
2023-03-12T09:15:59.038Z,91.78
2023-03-12T09:16:58.250Z,91.41
2023-03-12T09:17:58.034Z,91.58
2023-03-12T09:18:58.015Z,91.47
2023-03-12T09:19:58.004Z,91.89
2023-03-12T09:20:58.018Z,91.68
2023-03-12T09:21:57.993Z,91.89
2023-03-12T09:22:57.986Z,91.68
2023-03-12T09:23:57.968Z,92.20
2023-03-12T09:24:58.001Z,92.10
2023-03-12T09:25:57.974Z,92.30
2023-03-12T09:26:57.915Z,92.30
2023-03-12T09:27:57.926Z,92.41
2023-03-12T09:28:57.937Z,93.14
2023-03-12T09:30:00.484Z,93.35
2023-03-12T09:30:57.927Z,93.24
2023-03-12T09:31:57.865Z,93.97
2023-03-12T09:32:57.943Z,94.18
2023-03-12T09:33:57.871Z,94.28
2023-03-12T09:34:57.826Z,95.11
2023-03-12T09:35:57.847Z,95.21
2023-03-12T09:36:57.838Z,95.11
2023-03-12T09:37:57.814Z,95.94
2023-03-12T09:38:57.782Z,96.47
2023-03-12T09:39:57.766Z,95.94
2023-03-12T09:40:57.763Z,96.78
2023-03-12T09:41:57.760Z,96.57
2023-03-12T09:42:57.757Z,96.88
2023-03-12T09:43:57.735Z,96.25
2023-03-12T09:44:57.746Z,97.19
2023-03-12T09:45:57.742Z,97.19
2023-03-12T09:46:57.735Z,97.30
2023-03-12T09:47:57.690Z,97.67
2023-03-12T09:48:57.699Z,97.81
2023-03-12T09:49:57.666Z,97.92
2023-03-12T09:50:57.664Z,98.54
2023-03-12T09:51:57.660Z,98.59
2023-03-12T09:52:57.638Z,98.65
2023-03-12T09:53:57.668Z,99.06
2023-03-12T09:54:57.608Z,98.75
2023-03-12T09:55:57.598Z,99.06
2023-03-12T09:56:57.586Z,99.48
2023-03-12T09:57:57.594Z,98.85
2023-03-12T09:58:57.566Z,99.27
2023-03-12T09:59:57.609Z,98.96
2023-03-12T10:00:57.543Z,99.06
2023-03-12T10:01:57.536Z,99.27
2023-03-12T10:02:57.531Z,99.48
2023-03-12T10:03:57.522Z,99.58
2023-03-12T10:05:00.082Z,99.79
2023-03-12T10:05:57.497Z,99.99
2023-03-12T10:06:57.477Z,99.99
2023-03-12T10:07:57.481Z,99.99
2023-03-12T10:08:57.464Z,99.99
2023-03-12T10:09:57.484Z,99.99
2023-03-12T10:10:57.447Z,99.99
2023-03-12T10:11:57.446Z,99.99
2023-03-12T10:12:57.412Z,99.99
2023-03-12T10:13:57.414Z,99.99
2023-03-12T10:14:57.393Z,99.99
2023-03-12T10:15:57.574Z,99.99
2023-03-12T10:16:57.375Z,99.99
2023-03-12T10:17:57.421Z,99.99
2023-03-12T10:18:57.460Z,99.99
2023-03-12T10:19:57.358Z,99.99
2023-03-12T10:20:57.340Z,99.99
2023-03-12T10:21:57.318Z,99.99
2023-03-12T10:22:57.302Z,99.99
2023-03-12T10:23:57.310Z,99.99
2023-03-12T10:24:57.298Z,99.99
2023-03-12T10:25:57.303Z,99.99
2023-03-12T10:26:57.264Z,99.99
2023-03-12T10:27:57.254Z,99.99
2023-03-12T10:28:57.256Z,99.99
2023-03-12T10:29:57.229Z,99.99
2023-03-12T10:30:57.387Z,99.99
2023-03-12T10:31:57.220Z,99.99
2023-03-12T10:32:57.254Z,99.99
2023-03-12T10:33:57.186Z,99.99
2023-03-12T10:34:57.174Z,99.99
2023-03-12T10:35:57.211Z,99.99
2023-03-12T10:36:57.167Z,99.99
2023-03-12T10:37:57.144Z,99.99
2023-03-12T10:38:57.133Z,99.99
2023-03-12T10:39:57.123Z,99.99
2023-03-12T10:40:57.107Z,99.99
2023-03-12T10:41:57.138Z,99.99
2023-03-12T10:42:57.091Z,99.99
2023-03-12T10:43:57.082Z,99.99
2023-03-12T10:44:57.061Z,99.99
2023-03-12T10:45:57.134Z,99.99
2023-03-12T10:46:57.041Z,99.99
2023-03-12T10:47:57.042Z,99.99
2023-03-12T10:48:57.015Z,99.99
2023-03-12T10:49:57.356Z,99.99
2023-03-12T10:50:57.040Z,99.99
2023-03-12T10:51:56.999Z,99.99
2023-03-12T10:52:56.974Z,99.99
2023-03-12T10:53:56.978Z,99.99
2023-03-12T10:54:56.955Z,99.99
2023-03-12T10:55:56.975Z,99.99
2023-03-12T10:56:56.939Z,99.99
2023-03-12T10:57:56.941Z,99.99
2023-03-12T10:58:56.909Z,99.99
2023-03-12T10:59:56.905Z,99.99
2023-03-12T11:00:56.896Z,99.99
2023-03-12T11:01:56.958Z,99.99
2023-03-12T11:02:56.866Z,99.99
2023-03-12T11:03:56.863Z,99.99
2023-03-12T11:04:56.856Z,99.99
2023-03-12T11:05:56.877Z,99.99
2023-03-12T11:06:56.821Z,99.99
2023-03-12T11:07:56.823Z,99.99
2023-03-12T11:09:13.929Z,99.99
2023-03-12T11:09:57.791Z,99.99
2023-03-12T11:10:56.801Z,99.99
2023-03-12T11:11:56.769Z,99.99
2023-03-12T11:12:56.764Z,99.99
2023-03-12T11:13:56.770Z,99.99
2023-03-12T11:14:56.744Z,99.99
2023-03-12T11:15:56.784Z,99.99
2023-03-12T11:16:56.721Z,99.99
2023-03-12T11:17:56.706Z,99.99
2023-03-12T11:18:56.695Z,99.99
2023-03-12T11:19:56.685Z,99.99
2023-03-12T11:20:56.705Z,99.99
2023-03-12T11:21:56.668Z,99.99
2023-03-12T11:22:56.649Z,99.99
2023-03-12T11:23:56.665Z,99.99
2023-03-12T11:24:56.630Z,99.99
2023-03-12T11:25:56.621Z,99.99
2023-03-12T11:26:56.613Z,99.99
2023-03-12T11:27:56.684Z,99.99
2023-03-12T11:28:56.588Z,99.99
2023-03-12T11:29:56.595Z,99.99
2023-03-12T11:30:56.559Z,99.99
2023-03-12T11:31:56.608Z,99.99
2023-03-12T11:32:56.563Z,99.99
2023-03-12T11:33:56.538Z,99.99
2023-03-12T11:34:56.519Z,99.99
2023-03-12T11:35:56.532Z,99.99
2023-03-12T11:36:56.497Z,99.99
2023-03-12T11:37:56.489Z,99.99
2023-03-12T11:38:56.507Z,99.99
2023-03-12T11:39:56.471Z,99.99
2023-03-12T11:40:56.456Z,99.99
2023-03-12T11:41:56.455Z,99.99
2023-03-12T11:42:56.435Z,99.99
2023-03-12T11:43:56.429Z,99.99
2023-03-12T11:44:56.437Z,99.99
2023-03-12T11:45:56.426Z,99.99
2023-03-12T11:46:56.472Z,99.99
2023-03-12T11:47:56.378Z,99.99
2023-03-12T11:48:56.364Z,99.99
2023-03-12T11:49:56.372Z,99.99
2023-03-12T11:50:56.345Z,99.99
2023-03-12T11:51:56.336Z,99.99
2023-03-12T11:52:56.322Z,99.99
2023-03-12T11:53:56.321Z,99.99
2023-03-12T11:54:56.297Z,99.99
2023-03-12T11:55:56.308Z,99.99
2023-03-12T11:56:56.285Z,99.99
2023-03-12T11:57:56.270Z,99.99
2023-03-12T11:58:56.258Z,99.99
2023-03-12T11:59:56.256Z,99.99
2023-03-12T12:00:56.244Z,99.99
2023-03-12T12:01:56.334Z,99.99
2023-03-12T12:02:56.269Z,99.99
2023-03-12T12:03:56.214Z,99.99
2023-03-12T12:04:56.194Z,99.99
2023-03-12T12:05:56.201Z,99.99
2023-03-12T12:06:56.171Z,99.99
2023-03-12T12:07:56.161Z,99.99
2023-03-12T12:08:56.161Z,99.99
2023-03-12T12:09:56.139Z,99.99
2023-03-12T12:10:56.125Z,99.99
2023-03-12T12:11:56.146Z,99.99
2023-03-12T12:12:56.109Z,99.99
2023-03-12T12:13:56.108Z,99.99
2023-03-12T12:14:56.077Z,99.99
2023-03-12T12:15:56.083Z,99.99
2023-03-12T12:16:56.083Z,99.99
2023-03-12T12:17:56.079Z,99.99
2023-03-12T12:18:56.059Z,99.99
2023-03-12T12:19:56.035Z,99.99
2023-03-12T12:20:56.013Z,99.99
2023-03-12T12:21:56.002Z,99.99
2023-03-12T12:22:56.011Z,99.99
2023-03-12T12:23:55.985Z,99.99
2023-03-12T12:24:55.971Z,99.99
2023-03-12T12:25:55.981Z,99.99
2023-03-12T12:26:55.950Z,99.99
2023-03-12T12:27:55.960Z,99.99
2023-03-12T12:28:55.934Z,99.99
2023-03-12T12:29:55.919Z,99.99
2023-03-12T12:30:55.916Z,99.99
2023-03-12T12:31:56.085Z,99.99
2023-03-12T12:32:55.979Z,99.99
2023-03-12T12:33:55.898Z,99.99
2023-03-12T12:34:55.859Z,99.99
2023-03-12T12:35:55.875Z,99.99
2023-03-12T12:36:55.861Z,99.99
2023-03-12T12:37:55.836Z,99.99
2023-03-12T12:38:55.816Z,99.99
2023-03-12T12:39:55.808Z,99.99
2023-03-12T12:40:55.808Z,99.99
2023-03-12T12:41:55.800Z,99.99
2023-03-12T12:42:55.791Z,99.99
2023-03-12T12:43:55.763Z,99.99
2023-03-12T12:44:55.757Z,99.99
2023-03-12T12:45:55.785Z,99.99
2023-03-12T12:46:55.726Z,99.99
2023-03-12T12:47:55.725Z,99.99
2023-03-12T12:48:55.728Z,99.99
2023-03-12T12:49:55.724Z,99.99
2023-03-12T12:50:55.697Z,99.99
2023-03-12T12:51:55.687Z,99.99